Time;durP1;ratioP1;P1;durP2;ratioP2;P2;SDS_P1;SDS_P2;PMS_P1;PMS_P2;Temp;Humidity;BMP_temperature;BMP_pressure;BME280_temperature;BME280_humidity;BME280_pressure;Samples;Min_cycle;Max_cycle;Signal;HPM_P1;HPM_P2
2023/09/02 00:01:14;;;;;;;1.92;1.58;;;14.30;99.90;;;;;;5046417;28;20424;-67
2023/09/02 00:03:39;;;;;;;0.40;0.40;;;14.30;99.90;;;;;;5046200;28;20149;-67
2023/09/02 00:06:05;;;;;;;0.38;0.20;;;14.30;99.90;;;;;;5044604;28;20092;-67
2023/09/02 00:08:30;;;;;;;0.38;0.38;;;14.30;99.90;;;;;;5042483;28;20454;-67
2023/09/02 00:10:56;;;;;;;0.68;0.60;;;14.30;99.90;;;;;;5077674;28;20057;-67
2023/09/02 00:13:22;;;;;;;2.67;0.73;;;14.40;99.90;;;;;;5025490;28;20037;-67
2023/09/02 00:15:47;;;;;;;0.30;0.30;;;14.30;99.90;;;;;;5070724;28;20041;-67
2023/09/02 00:18:13;;;;;;;0.38;0.38;;;14.30;99.90;;;;;;5071764;28;20468;-67
2023/09/02 00:20:39;;;;;;;0.47;0.47;;;14.30;99.90;;;;;;5041559;28;20541;-67
2023/09/02 00:23:05;;;;;;;1.20;1.02;;;14.30;99.90;;;;;;5042274;28;20144;-67
2023/09/02 00:25:30;;;;;;;0.98;0.75;;;14.30;99.90;;;;;;5044815;28;20179;-67
2023/09/02 00:27:56;;;;;;;0.90;0.82;;;14.30;99.90;;;;;;5038728;28;20045;-67
2023/09/02 00:30:21;;;;;;;0.20;0.20;;;14.40;99.90;;;;;;5078169;28;20052;-67
2023/09/02 00:32:47;;;;;;;0.20;0.20;;;14.40;99.90;;;;;;5042979;28;20060;-67
2023/09/02 00:35:12;;;;;;;1.83;0.65;;;14.40;99.90;;;;;;5046466;28;20250;-67
2023/09/02 00:37:38;;;;;;;0.47;0.47;;;14.40;99.90;;;;;;5039996;28;20074;-67
2023/09/02 00:40:05;;;;;;;0.77;0.77;;;14.40;99.90;;;;;;5043833;28;20498;-67
2023/09/02 00:42:33;;;;;;;0.20;0.20;;;14.40;99.90;;;;;;5022927;28;20552;-67
2023/09/02 00:44:59;;;;;;;3.22;0.47;;;14.50;99.90;;;;;;5036624;28;20051;-67
2023/09/02 00:47:25;;;;;;;0.55;0.55;;;14.50;99.90;;;;;;5038174;28;20037;-67
2023/09/02 00:49:51;;;;;;;1.55;0.38;;;14.50;99.90;;;;;;5039939;28;20064;-67
2023/09/02 00:52:18;;;;;;;0.25;0.25;;;14.50;99.90;;;;;;5071189;28;20084;-67
2023/09/02 00:54:44;;;;;;;0.03;0.03;;;14.50;99.90;;;;;;5041623;28;20044;-67
2023/09/02 00:57:09;;;;;;;0.50;0.50;;;14.50;99.90;;;;;;5037993;28;20045;-67
2023/09/02 00:59:35;;;;;;;3.80;0.70;;;14.50;99.90;;;;;;5034246;28;20222;-67
2023/09/02 01:02:02;;;;;;;2.85;2.28;;;14.50;99.90;;;;;;5038906;28;20048;-67
2023/09/02 01:04:27;;;;;;;0.70;0.70;;;14.50;99.90;;;;;;5042381;28;20449;-67
2023/09/02 01:06:55;;;;;;;0.55;0.55;;;14.50;99.90;;;;;;5037503;28;20053;-67
2023/09/02 01:09:21;;;;;;;0.32;0.32;;;14.50;99.90;;;;;;5039660;28;20052;-67
2023/09/02 01:11:48;;;;;;;0.50;0.50;;;14.60;99.90;;;;;;5040088;28;20080;-67
2023/09/02 01:14:14;;;;;;;2.20;0.80;;;14.60;99.90;;;;;;5038819;28;20119;-67
2023/09/02 01:16:40;;;;;;;0.60;0.52;;;14.60;99.90;;;;;;5039230;28;20047;-67
2023/09/02 01:19:08;;;;;;;0.50;0.50;;;14.60;99.90;;;;;;5040277;28;20488;-68
2023/09/02 01:22:11;;;;;;;1.65;0.55;;;14.60;99.90;;;;;;5041801;28;20044;-67
2023/09/02 01:25:00;;;;;;;0.47;0.40;;;14.60;99.90;;;;;;5076456;28;20243;-67
2023/09/02 01:27:34;;;;;;;1.05;0.40;;;14.70;99.90;;;;;;5070191;28;20045;-67
2023/09/02 01:30:09;;;;;;;0.17;0.17;;;14.70;99.90;;;;;;5044029;28;20150;-67
2023/09/02 01:32:42;;;;;;;0.50;0.50;;;14.70;99.90;;;;;;5040509;28;20636;-67
2023/09/02 01:35:08;;;;;;;0.20;0.20;;;14.70;99.90;;;;;;5041540;28;20108;-67
2023/09/02 01:37:42;;;;;;;0.38;0.32;;;14.70;99.90;;;;;;5070576;28;20051;-68
2023/09/02 01:40:10;;;;;;;0.32;0.32;;;14.70;99.90;;;;;;5023991;28;20036;-67
2023/09/02 01:42:38;;;;;;;0.10;0.10;;;14.70;99.90;;;;;;5042424;28;20033;-67
2023/09/02 01:45:04;;;;;;;0.20;0.20;;;14.70;99.90;;;;;;5042823;28;20086;-67
2023/09/02 01:47:30;;;;;;;1.75;0.38;;;14.70;99.90;;;;;;5034671;28;20079;-67
2023/09/02 01:49:56;;;;;;;0.20;0.20;;;14.70;99.90;;;;;;5041600;28;20499;-67
2023/09/02 01:52:23;;;;;;;0.10;0.10;;;14.70;99.90;;;;;;5037188;28;20037;-67
2023/09/02 01:54:51;;;;;;;0.10;0.10;;;14.70;99.90;;;;;;5039434;28;20053;-67
2023/09/02 01:57:17;;;;;;;0.75;0.65;;;14.70;99.90;;;;;;5038400;28;20051;-67
2023/09/02 01:59:42;;;;;;;0.30;0.30;;;14.80;99.90;;;;;;5074395;28;20066;-67
2023/09/02 02:02:08;;;;;;;0.43;0.40;;;14.80;99.90;;;;;;5035866;28;20426;-67
2023/09/02 02:04:36;;;;;;;0.55;0.20;;;14.70;99.90;;;;;;5039763;28;20547;-67
2023/09/02 02:07:08;;;;;;;0.57;0.57;;;14.70;99.90;;;;;;5039285;28;20096;-67
2023/09/02 02:09:42;;;;;;;;;;;14.80;99.90;;;;;;5038653;28;20059;-67
2023/09/02 02:12:08;;;;;;;0.65;0.47;;;14.80;99.90;;;;;;5041677;28;20391;-67
2023/09/02 02:14:34;;;;;;;1.42;0.47;;;14.80;99.90;;;;;;5039676;28;20083;-67
2023/09/02 02:17:02;;;;;;;0.10;0.10;;;14.80;99.90;;;;;;5038907;28;20496;-67
2023/09/02 02:19:28;;;;;;;0.65;0.65;;;14.80;99.90;;;;;;5037941;28;21325;-67
2023/09/02 02:21:53;;;;;;;0.50;0.50;;;14.80;99.90;;;;;;5042546;28;20095;-67
2023/09/02 02:24:19;;;;;;;0.10;0.10;;;14.80;99.90;;;;;;5039896;28;20045;-67
2023/09/02 02:26:45;;;;;;;0.57;0.20;;;14.80;99.90;;;;;;5042094;28;20033;-67
2023/09/02 02:29:10;;;;;;;0.32;0.32;;;14.80;99.90;;;;;;5040349;28;20044;-67
2023/09/02 02:31:36;;;;;;;0.65;0.35;;;14.80;99.90;;;;;;5041477;28;20414;-67
2023/09/02 02:34:02;;;;;;;0.13;0.13;;;14.90;99.90;;;;;;5021088;28;20490;-68
2023/09/02 02:36:28;;;;;;;0.30;0.30;;;14.90;99.90;;;;;;5039512;28;20033;-68
2023/09/02 02:38:54;;;;;;;0.03;0.03;;;14.90;99.90;;;;;;5037598;28;20376;-67
2023/09/02 02:41:19;;;;;;;0.22;0.20;;;14.90;99.90;;;;;;5055385;28;20483;-68
2023/09/02 02:43:45;;;;;;;3.05;0.63;;;14.90;99.90;;;;;;5042634;28;20472;-68
2023/09/02 02:46:10;;;;;;;0.47;0.47;;;14.90;99.90;;;;;;5046915;28;20483;-67
2023/09/02 02:48:36;;;;;;;3.28;1.02;;;14.90;99.90;;;;;;5077662;28;20045;-68
2023/09/02 02:51:01;;;;;;;0.15;0.15;;;14.90;99.90;;;;;;5082886;28;20043;-68
2023/09/02 02:53:27;;;;;;;0.35;0.35;;;14.90;99.90;;;;;;5045206;28;20033;-68
2023/09/02 02:55:53;;;;;;;0.45;0.45;;;14.90;99.90;;;;;;5048141;28;20056;-69
2023/09/02 02:58:18;;;;;;;0.38;0.38;;;14.90;99.90;;;;;;5041103;28;20502;-70
2023/09/02 03:00:46;;;;;;;0.60;0.57;;;14.90;99.90;;;;;;5049708;28;20106;-69
2023/09/02 03:03:12;;;;;;;0.82;0.57;;;14.90;99.90;;;;;;5047390;28;20044;-70
2023/09/02 03:05:39;;;;;;;0.20;0.20;;;14.90;99.90;;;;;;5050136;28;20175;-70
2023/09/02 03:08:10;;;;;;;0.43;0.30;;;14.90;99.90;;;;;;5049767;28;20048;-70
2023/09/02 03:10:36;;;;;;;0.57;0.57;;;14.90;99.90;;;;;;5042802;28;20063;-70
2023/09/02 03:13:02;;;;;;;0.20;0.20;;;14.90;99.90;;;;;;5043638;28;20037;-70
2023/09/02 03:19:09;;;;;;;0.20;0.20;;;15.00;99.90;;;;;;5050264;28;20043;-70
2023/09/02 03:21:35;;;;;;;0.70;0.47;;;14.90;99.90;;;;;;5061614;28;20040;-69
2023/09/02 03:24:00;;;;;;;0.70;0.32;;;14.90;99.90;;;;;;5047419;28;20037;-70
2023/09/02 03:26:27;;;;;;;1.45;0.40;;;14.90;99.90;;;;;;5080306;28;20082;-69
2023/09/02 03:28:53;;;;;;;1.13;0.52;;;14.90;99.90;;;;;;5049184;28;20052;-69
2023/09/02 03:31:19;;;;;;;0.63;0.57;;;14.90;99.90;;;;;;5051604;28;20036;-69
2023/09/02 03:33:44;;;;;;;0.30;0.20;;;14.90;99.90;;;;;;5046244;28;20404;-69
2023/09/02 03:36:16;;;;;;;0.32;0.32;;;14.90;99.90;;;;;;5067823;28;20411;-69
2023/09/02 03:38:42;;;;;;;;;;;15.00;99.90;;;;;;5051260;28;20036;-69
2023/09/02 03:41:12;;;;;;;0.52;0.38;;;15.00;99.90;;;;;;5051021;28;20287;-69
2023/09/02 03:43:38;;;;;;;0.45;0.32;;;14.90;99.90;;;;;;5042077;28;20040;-69
2023/09/02 03:46:04;;;;;;;0.30;0.30;;;15.00;99.90;;;;;;5052632;28;20044;-69
2023/09/02 03:48:30;;;;;;;1.48;1.10;;;14.90;99.90;;;;;;5082504;28;20123;-69
2023/09/02 03:54:37;;;;;;;2.30;0.88;;;14.90;99.90;;;;;;5051965;28;20095;-69
2023/09/02 04:00:44;;;;;;;0.55;0.43;;;14.90;99.90;;;;;;5049450;28;20067;-69
2023/09/02 04:06:51;;;;;;;0.68;0.68;;;14.90;99.90;;;;;;5046962;28;20035;-69
2023/09/02 04:09:16;;;;;;;0.45;0.45;;;14.90;99.90;;;;;;5083325;28;20045;-69
2023/09/02 04:15:23;;;;;;;0.52;0.30;;;14.90;99.90;;;;;;5043118;28;20626;-69
2023/09/02 04:21:37;;;;;;;5.57;0.68;;;14.90;99.90;;;;;;5050813;28;20108;-68
2023/09/02 04:27:57;;;;;;;0.20;0.20;;;14.90;99.90;;;;;;5049935;28;20581;-69
2023/09/02 04:34:03;;;;;;;1.38;0.35;;;14.80;99.90;;;;;;5047935;28;20075;-69
2023/09/02 04:36:29;;;;;;;0.50;0.50;;;14.90;99.90;;;;;;5048068;28;20037;-70
2023/09/02 04:38:54;;;;;;;0.32;0.32;;;14.90;99.90;;;;;;5025749;28;20120;-70
2023/09/02 04:41:20;;;;;;;0.10;0.10;;;14.90;99.90;;;;;;5047507;28;20036;-69
2023/09/02 04:43:45;;;;;;;0.38;0.28;;;14.90;99.90;;;;;;5046901;28;20029;-69
2023/09/02 04:46:11;;;;;;;1.83;0.77;;;14.90;99.90;;;;;;5048949;28;20048;-70
2023/09/02 04:48:37;;;;;;;1.33;0.35;;;14.80;99.90;;;;;;5049947;28;20037;-69
2023/09/02 04:51:03;;;;;;;0.28;0.28;;;14.90;99.90;;;;;;5076754;28;20037;-69
2023/09/02 04:53:29;;;;;;;0.30;0.30;;;14.90;99.90;;;;;;5046623;28;20037;-69
2023/09/02 04:56:05;;;;;;;0.95;0.95;;;14.90;99.90;;;;;;5083035;28;20478;-70
2023/09/02 04:58:31;;;;;;;0.68;0.52;;;14.90;99.90;;;;;;5041856;28;20025;-70
2023/09/02 05:01:10;;;;;;;6.20;0.85;;;14.90;99.90;;;;;;5048490;28;20052;-70
2023/09/02 05:03:35;;;;;;;0.20;0.20;;;15.00;99.90;;;;;;5047684;28;20043;-71
2023/09/02 05:06:02;;;;;;;0.50;0.50;;;15.00;99.90;;;;;;5040033;28;20663;-70
2023/09/02 05:08:31;;;;;;;0.57;0.25;;;15.00;99.90;;;;;;5041864;28;20051;-70
2023/09/02 05:10:57;;;;;;;0.08;0.08;;;15.00;99.90;;;;;;5043363;28;20048;-71
2023/09/02 05:13:25;;;;;;;0.75;0.30;;;15.00;99.90;;;;;;5044329;28;20071;-70
2023/09/02 05:15:50;;;;;;;0.22;0.20;;;15.00;99.90;;;;;;5042911;28;20037;-70
2023/09/02 05:18:16;;;;;;;0.55;0.52;;;15.00;99.90;;;;;;5041818;28;20068;-70
2023/09/02 05:20:41;;;;;;;0.55;0.20;;;15.00;99.90;;;;;;5046762;28;20472;-70
2023/09/02 05:23:07;;;;;;;0.38;0.30;;;15.00;99.90;;;;;;5044153;28;20056;-70
2023/09/02 05:25:32;;;;;;;0.35;0.35;;;15.00;99.90;;;;;;5047080;28;20055;-70
2023/09/02 05:27:58;;;;;;;1.75;0.77;;;15.10;99.90;;;;;;5076409;28;20042;-70
2023/09/02 05:30:24;;;;;;;0.10;0.10;;;15.10;99.90;;;;;;5043209;28;20522;-71
2023/09/02 05:32:49;;;;;;;0.10;0.10;;;15.10;99.90;;;;;;5046665;28;20057;-70
2023/09/02 05:35:15;;;;;;;0.30;0.25;;;15.10;99.90;;;;;;5043333;28;20483;-70
2023/09/02 05:37:40;;;;;;;0.35;0.35;;;15.10;99.90;;;;;;5045068;28;20494;-70
2023/09/02 05:40:08;;;;;;;1.67;0.50;;;15.10;99.90;;;;;;5046688;28;20480;-71
2023/09/02 05:42:34;;;;;;;0.65;0.40;;;15.20;99.90;;;;;;5043678;28;20044;-70
2023/09/02 05:44:59;;;;;;;1.13;1.13;;;15.20;99.90;;;;;;5044920;28;20553;-70
2023/09/02 05:47:25;;;;;;;0.20;0.20;;;15.20;99.90;;;;;;5075460;28;20439;-70
2023/09/02 05:49:51;;;;;;;0.20;0.13;;;15.30;99.90;;;;;;5040166;28;20499;-70
2023/09/02 05:52:16;;;;;;;0.45;0.38;;;15.30;99.90;;;;;;5044982;28;20083;-70
2023/09/02 05:54:42;;;;;;;0.00;0.00;;;15.30;99.90;;;;;;5042758;28;20033;-71
2023/09/02 05:57:07;;;;;;;3.03;0.75;;;15.30;99.90;;;;;;5043382;28;20450;-70
2023/09/02 05:59:33;;;;;;;0.30;0.30;;;15.40;99.90;;;;;;5044170;28;20047;-71
2023/09/02 06:01:59;;;;;;;1.45;0.63;;;15.40;99.90;;;;;;5046717;28;20045;-70
2023/09/02 06:04:24;;;;;;;1.90;0.95;;;15.40;99.90;;;;;;5039525;28;20053;-70
2023/09/02 06:06:50;;;;;;;0.68;0.47;;;15.40;99.90;;;;;;5043891;28;20114;-70
2023/09/02 06:09:16;;;;;;;1.33;0.30;;;15.40;99.90;;;;;;5042048;28;20222;-71
2023/09/02 06:11:42;;;;;;;0.22;0.22;;;15.40;99.90;;;;;;5043292;28;20042;-71
2023/09/02 06:14:07;;;;;;;1.02;0.38;;;15.50;99.90;;;;;;5043467;28;20373;-71
2023/09/02 06:16:33;;;;;;;0.43;0.43;;;15.50;99.90;;;;;;5042087;28;20391;-71
2023/09/02 06:18:58;;;;;;;0.98;0.88;;;15.50;99.90;;;;;;5045742;28;20055;-71
2023/09/02 06:21:24;;;;;;;1.50;0.30;;;15.60;99.90;;;;;;5043199;28;20316;-71
2023/09/02 06:23:50;;;;;;;0.50;0.50;;;15.60;99.90;;;;;;5046777;28;20601;-71
2023/09/02 06:26:16;;;;;;;5.88;0.82;;;15.60;99.90;;;;;;5044074;28;20143;-72
2023/09/02 06:28:41;;;;;;;0.73;0.73;;;15.60;99.90;;;;;;5048064;28;20041;-71
2023/09/02 06:31:10;;;;;;;0.57;0.57;;;15.70;99.90;;;;;;5048140;28;20129;-71
2023/09/02 06:33:36;;;;;;;0.20;0.20;;;15.70;99.90;;;;;;5081702;28;20041;-71
2023/09/02 06:36:16;;;;;;;0.90;0.90;;;15.80;99.90;;;;;;5050663;28;20861;-72
2023/09/02 06:38:42;;;;;;;0.80;0.30;;;15.80;99.90;;;;;;5042479;28;20376;-72
2023/09/02 06:41:13;;;;;;;1.08;0.47;;;15.90;99.90;;;;;;5047514;28;20037;-72
2023/09/02 06:43:39;;;;;;;1.90;0.63;;;15.90;99.90;;;;;;5064565;28;20041;-75
2023/09/02 06:46:14;;;;;;;0.80;0.68;;;15.90;99.90;;;;;;5046332;28;20047;-72
2023/09/02 06:48:40;;;;;;;2.45;0.50;;;15.90;99.90;;;;;;5046245;28;20391;-72
2023/09/02 06:51:05;;;;;;;1.23;0.40;;;16.00;99.90;;;;;;5039522;28;20071;-72
2023/09/02 06:53:31;;;;;;;0.47;0.47;;;16.00;99.90;;;;;;5045949;28;20036;-72
2023/09/02 06:55:57;;;;;;;0.17;0.17;;;16.00;99.90;;;;;;5080136;28;20505;-72
2023/09/02 06:58:23;;;;;;;0.15;0.15;;;16.00;99.90;;;;;;5048835;28;20045;-72
2023/09/02 07:00:50;;;;;;;0.30;0.30;;;16.00;99.90;;;;;;5044897;28;20171;-71
2023/09/02 07:03:16;;;;;;;2.55;0.38;;;16.00;99.90;;;;;;5047952;28;20523;-71
2023/09/02 07:05:42;;;;;;;1.30;0.63;;;16.10;99.90;;;;;;5031596;28;20546;-71
2023/09/02 07:08:07;;;;;;;0.15;0.15;;;16.10;99.90;;;;;;5046829;28;20091;-71
2023/09/02 07:10:33;;;;;;;0.50;0.50;;;16.10;99.90;;;;;;5044022;28;20596;-71
2023/09/02 07:12:58;;;;;;;0.20;0.13;;;16.20;99.90;;;;;;5041623;28;20123;-71
2023/09/02 07:15:24;;;;;;;0.57;0.40;;;16.20;99.90;;;;;;5051422;28;20059;-71
2023/09/02 07:17:49;;;;;;;0.57;0.57;;;16.20;99.90;;;;;;5035900;28;20037;-71
2023/09/02 07:20:15;;;;;;;0.55;0.47;;;16.30;99.90;;;;;;5050711;28;20033;-71
2023/09/02 07:22:40;;;;;;;1.38;1.23;;;16.30;99.90;;;;;;5043015;28;20063;-71
2023/09/02 07:25:06;;;;;;;1.02;0.60;;;16.30;99.90;;;;;;5048580;28;20091;-71
2023/09/02 07:27:33;;;;;;;1.35;0.73;;;16.40;99.90;;;;;;5039690;28;20036;-71
2023/09/02 07:30:00;;;;;;;0.95;0.60;;;16.50;99.90;;;;;;5042693;28;20047;-70
2023/09/02 07:32:26;;;;;;;1.13;0.50;;;16.60;99.90;;;;;;5039548;28;20041;-69
2023/09/02 07:34:51;;;;;;;1.80;0.55;;;16.70;99.90;;;;;;5042847;28;20437;-69
2023/09/02 07:37:17;;;;;;;0.22;0.22;;;16.90;99.90;;;;;;5039808;28;20069;-69
2023/09/02 07:39:42;;;;;;;0.22;0.22;;;17.10;99.90;;;;;;5044994;28;20037;-69
2023/09/02 07:42:09;;;;;;;0.68;0.50;;;17.20;99.90;;;;;;5048831;28;20033;-69
2023/09/02 07:44:34;;;;;;;0.55;0.55;;;17.40;99.90;;;;;;5045787;28;20091;-69
2023/09/02 07:47:00;;;;;;;0.32;0.32;;;17.50;99.90;;;;;;5082857;28;20066;-69
2023/09/02 07:49:26;;;;;;;0.75;0.40;;;17.70;99.90;;;;;;5044141;28;20029;-70
2023/09/02 07:51:52;;;;;;;0.95;0.77;;;17.70;99.90;;;;;;5048490;28;20048;-69
2023/09/02 07:54:18;;;;;;;0.88;0.55;;;17.80;99.90;;;;;;5051002;28;20519;-69
2023/09/02 07:57:25;;;;;;;0.47;0.47;;;17.80;99.90;;;;;;5050373;28;20032;-69
2023/09/02 08:03:29;;;;;;;0.52;0.52;;;17.70;99.90;;;;;;5046573;28;20099;-69
2023/09/02 08:05:54;;;;;;;2.50;0.40;;;17.60;99.90;;;;;;5050492;28;20040;-69
2023/09/02 08:08:20;;;;;;;2.40;0.80;;;17.60;99.90;;;;;;5048007;28;20132;-69
2023/09/02 08:10:46;;;;;;;0.20;0.20;;;17.60;99.90;;;;;;5051791;28;20041;-69
2023/09/02 08:14:04;;;;;;;0.30;0.20;;;17.60;99.90;;;;;;5041304;28;20498;-69
2023/09/02 08:16:30;;;;;;;0.17;0.17;;;17.60;99.90;;;;;;5060974;28;20079;-69
2023/09/02 08:18:55;;;;;;;1.05;0.40;;;17.70;99.90;;;;;;5042224;28;20121;-69
2023/09/02 08:21:22;;;;;;;0.77;0.73;;;17.70;99.90;;;;;;5045419;28;20083;-70
2023/09/02 08:23:48;;;;;;;0.93;0.75;;;17.70;99.90;;;;;;5082092;28;20055;-69
2023/09/02 08:26:13;;;;;;;0.10;0.10;;;17.70;99.90;;;;;;5047226;28;20041;-70
2023/09/02 08:28:44;;;;;;;1.33;1.23;;;17.80;99.90;;;;;;5047565;28;20108;-69
2023/09/02 08:31:12;;;;;;;1.77;1.10;;;17.80;99.90;;;;;;5048342;28;20056;-70
2023/09/02 08:33:38;;;;;;;1.30;1.20;;;17.80;99.90;;;;;;5042704;28;20048;-69
2023/09/02 08:36:18;;;;;;;1.30;1.20;;;17.80;99.90;;;;;;5042911;28;20045;-69
2023/09/02 08:38:44;;;;;;;3.72;0.57;;;17.90;99.90;;;;;;5030174;28;20049;-69
2023/09/02 08:41:25;;;;;;;0.52;0.52;;;18.00;99.90;;;;;;5045792;28;20052;-70
2023/09/02 08:43:55;;;;;;;1.00;0.95;;;18.10;99.90;;;;;;5044152;28;20138;-69
2023/09/02 08:46:25;;;;;;;4.13;1.80;;;18.20;99.90;;;;;;5075580;28;20308;-69
2023/09/02 08:48:52;;;;;;;1.10;0.88;;;18.10;99.90;;;;;;5058907;28;20056;-69
2023/09/02 08:51:18;;;;;;;0.82;0.63;;;18.20;99.90;;;;;;5042388;28;20049;-70
2023/09/02 08:53:44;;;;;;;0.45;0.40;;;18.20;99.90;;;;;;5039251;28;20047;-69
2023/09/02 08:56:12;;;;;;;0.20;0.20;;;18.20;99.90;;;;;;5041543;28;20056;-69
2023/09/02 08:58:40;;;;;;;0.25;0.25;;;18.20;99.90;;;;;;5040586;28;20033;-70
2023/09/02 09:01:06;;;;;;;1.85;1.20;;;18.20;99.90;;;;;;5042852;28;20067;-69
2023/09/02 09:03:33;;;;;;;0.98;0.88;;;18.30;99.90;;;;;;5040362;28;20791;-69
2023/09/02 09:05:59;;;;;;;0.95;0.52;;;18.30;99.90;;;;;;5040635;28;20037;-70
2023/09/02 09:08:28;;;;;;;0.95;0.88;;;18.40;99.90;;;;;;5035017;28;20051;-69
2023/09/02 09:10:56;;;;;;;0.73;0.73;;;18.40;99.90;;;;;;5046991;28;20076;-69
2023/09/02 09:13:25;;;;;;;0.70;0.70;;;18.40;99.90;;;;;;5046516;28;20136;-70
2023/09/02 09:15:54;;;;;;;0.45;0.45;;;18.50;99.90;;;;;;5046449;28;20033;-70
2023/09/02 09:18:20;;;;;;;0.90;0.70;;;18.50;99.90;;;;;;5040307;28;20099;-70
2023/09/02 09:20:45;;;;;;;0.90;0.90;;;18.50;99.90;;;;;;5046075;28;20044;-70
2023/09/02 09:23:12;;;;;;;1.58;1.48;;;18.60;99.90;;;;;;5044364;28;20036;-69
2023/09/02 09:25:37;;;;;;;0.85;0.73;;;18.60;99.90;;;;;;5049045;28;20045;-70
2023/09/02 09:28:09;;;;;;;0.30;0.30;;;18.60;99.90;;;;;;5043627;28;20045;-70
2023/09/02 09:30:36;;;;;;;0.40;0.40;;;18.60;99.90;;;;;;5066614;28;20068;-71
2023/09/02 09:33:05;;;;;;;0.38;0.38;;;18.70;99.90;;;;;;5032347;28;20476;-71
2023/09/02 09:35:32;;;;;;;0.60;0.60;;;18.70;99.90;;;;;;5073925;28;20037;-71
2023/09/02 09:37:58;;;;;;;2.20;1.65;;;18.70;99.90;;;;;;5040062;28;20033;-71
2023/09/02 09:40:35;;;;;;;1.25;1.02;;;18.80;99.90;;;;;;5039540;28;20071;-70
2023/09/02 09:43:12;;;;;;;2.08;1.40;;;18.80;99.90;;;;;;5039416;28;20036;-70
2023/09/02 09:45:51;;;;;;;1.92;0.82;;;18.80;99.90;;;;;;5040178;28;20932;-71
2023/09/02 09:48:16;;;;;;;0.55;0.55;;;18.80;99.90;;;;;;5069370;28;20076;-71
2023/09/02 09:50:42;;;;;;;0.85;0.75;;;18.80;99.90;;;;;;5041285;28;20546;-70
2023/09/02 09:53:09;;;;;;;0.73;0.60;;;18.90;99.90;;;;;;5038921;28;20041;-71
2023/09/02 09:55:36;;;;;;;3.13;0.90;;;18.90;99.90;;;;;;5038148;28;20049;-71
2023/09/02 09:58:03;;;;;;;0.98;0.98;;;18.90;99.90;;;;;;5041285;28;20403;-71
2023/09/02 10:00:29;;;;;;;1.13;0.52;;;18.90;99.90;;;;;;5025523;28;20048;-69
2023/09/02 10:02:59;;;;;;;0.80;0.80;;;18.90;99.90;;;;;;5041935;28;20063;-69
2023/09/02 10:05:32;;;;;;;3.45;0.95;;;18.80;99.90;;;;;;5063345;28;20045;-69
2023/09/02 10:08:01;;;;;;;0.55;0.50;;;18.90;99.90;;;;;;5074133;28;21076;-68
2023/09/02 10:10:32;;;;;;;2.67;1.10;;;18.90;99.90;;;;;;5079030;28;20463;-68
2023/09/02 10:12:58;;;;;;;0.38;0.32;;;19.00;99.90;;;;;;5043793;28;20040;-71
2023/09/02 10:15:25;;;;;;;0.35;0.35;;;19.10;99.90;;;;;;5043167;28;20041;-70
2023/09/02 10:17:59;;;;;;;0.52;0.52;;;19.30;99.90;;;;;;5044292;28;20045;-70
2023/09/02 10:20:38;;;;;;;0.70;0.50;;;19.40;99.90;;;;;;5047659;28;20037;-70
2023/09/02 10:23:06;;;;;;;0.75;0.75;;;19.50;99.90;;;;;;5045493;28;20040;-68
2023/09/02 10:26:01;;;;;;;0.95;0.77;;;19.70;99.90;;;;;;5040056;28;20033;-70
2023/09/02 10:28:40;;;;;;;1.10;0.60;;;19.80;99.90;;;;;;5040812;28;20037;-69
2023/09/02 10:31:13;;;;;;;0.98;0.98;;;20.00;99.90;;;;;;5059954;28;20041;-69
2023/09/02 10:33:45;;;;;;;0.93;0.93;;;20.10;99.90;;;;;;5030994;28;20068;-68
2023/09/02 10:36:16;;;;;;;1.33;1.23;;;20.20;99.90;;;;;;5043384;28;20048;-69
2023/09/02 10:38:47;;;;;;;4.97;1.33;;;20.30;99.90;;;;;;5050175;28;20110;-68
2023/09/02 10:41:14;;;;;;;1.30;0.93;;;20.30;99.90;;;;;;5063620;28;20048;-68
2023/09/02 10:43:42;;;;;;;0.60;0.60;;;20.40;99.90;;;;;;5042939;28;20492;-68
2023/09/02 10:46:09;;;;;;;0.47;0.47;;;20.60;99.90;;;;;;5036411;28;20037;-69
2023/09/02 10:48:44;;;;;;;3.47;0.63;;;20.70;99.90;;;;;;5043522;28;20045;-69
2023/09/02 10:51:11;;;;;;;0.50;0.32;;;20.80;99.90;;;;;;5046614;28;20141;-70
2023/09/02 10:53:50;;;;;;;1.17;0.40;;;20.90;99.90;;;;;;5050246;28;20407;-69
2023/09/02 10:56:31;;;;;;;1.77;1.30;;;20.90;99.90;;;;;;5042741;28;20045;-69
2023/09/02 10:59:06;;;;;;;9.02;1.27;;;20.80;99.90;;;;;;5083238;28;20090;-69
2023/09/02 11:01:45;;;;;;;0.35;0.22;;;20.70;99.90;;;;;;5081580;28;20111;-70
2023/09/02 11:04:11;;;;;;;0.30;0.30;;;20.60;99.90;;;;;;5082007;28;20045;-70
2023/09/02 11:06:36;;;;;;;0.77;0.77;;;20.60;99.90;;;;;;5049322;28;20451;-69
2023/09/02 11:09:02;;;;;;;1.10;0.45;;;20.60;99.90;;;;;;5050110;28;20053;-69
2023/09/02 11:12:19;;;;;;;0.60;0.25;;;20.50;99.90;;;;;;5045530;28;20045;-69
2023/09/02 11:15:07;;;;;;;1.45;0.98;;;20.40;99.90;;;;;;5049359;28;20064;-70
2023/09/02 11:17:33;;;;;;;0.82;0.60;;;20.20;99.90;;;;;;5043342;28;20395;-69
2023/09/02 11:20:01;;;;;;;1.15;0.47;;;20.10;99.90;;;;;;5036902;28;20040;-70
2023/09/02 11:22:53;;;;;;;0.60;0.60;;;20.10;99.90;;;;;;5070895;28;20128;-69
2023/09/02 11:25:38;;;;;;;0.40;0.40;;;20.10;99.90;;;;;;5042785;28;20045;-69
2023/09/02 11:28:08;;;;;;;1.40;0.43;;;20.20;99.90;;;;;;5038717;28;20038;-69
2023/09/02 11:30:38;;;;;;;1.10;0.82;;;20.30;99.90;;;;;;5042757;28;20509;-68
2023/09/02 11:33:06;;;;;;;2.70;1.15;;;20.40;99.90;;;;;;5040710;28;20037;-68
2023/09/02 11:35:36;;;;;;;2.55;0.55;;;20.50;99.90;;;;;;5043414;28;20048;-68
2023/09/02 11:38:16;;;;;;;1.90;0.90;;;20.70;99.90;;;;;;5040401;28;20470;-67
2023/09/02 11:40:41;;;;;;;0.70;0.68;;;20.90;99.90;;;;;;5041161;28;20087;-68
2023/09/02 11:43:07;;;;;;;0.30;0.30;;;21.00;99.90;;;;;;5043468;28;20442;-68
2023/09/02 11:45:35;;;;;;;0.82;0.82;;;21.10;99.90;;;;;;5042938;28;22102;-68
2023/09/02 11:48:03;;;;;;;1.23;1.00;;;21.20;99.90;;;;;;5044003;28;20415;-69
2023/09/02 11:50:29;;;;;;;0.35;0.35;;;21.20;99.90;;;;;;5045330;28;20041;-69
2023/09/02 11:52:57;;;;;;;0.90;0.88;;;21.00;99.90;;;;;;5055080;28;21649;-70
2023/09/02 11:55:23;;;;;;;0.28;0.28;;;20.90;99.90;;;;;;5042841;28;20572;-69
2023/09/02 11:57:50;;;;;;;0.90;0.30;;;20.80;99.90;;;;;;5063987;28;20131;-69
2023/09/02 12:00:18;;;;;;;0.57;0.50;;;20.70;99.90;;;;;;5046376;28;20415;-69
2023/09/02 12:02:44;;;;;;;2.75;1.05;;;20.80;99.90;;;;;;5043893;28;20120;-68
2023/09/02 12:05:10;;;;;;;0.20;0.20;;;20.90;99.90;;;;;;5047999;28;20063;-68
2023/09/02 12:07:37;;;;;;;0.35;0.35;;;21.00;99.90;;;;;;5047255;28;20029;-67
2023/09/02 12:10:14;;;;;;;0.10;0.10;;;21.10;99.90;;;;;;5050808;28;20068;-68
2023/09/02 12:12:49;;;;;;;3.20;0.57;;;21.10;99.90;;;;;;5080240;28;20080;-69
2023/09/02 12:15:16;;;;;;;0.35;0.35;;;21.20;99.90;;;;;;5047303;28;20372;-68
2023/09/02 12:17:43;;;;;;;0.55;0.55;;;21.20;99.90;;;;;;5041792;28;20076;-69
2023/09/02 12:20:11;;;;;;;0.32;0.32;;;21.20;99.90;;;;;;5037816;28;20423;-69
2023/09/02 12:22:37;;;;;;;0.50;0.50;;;21.20;99.90;;;;;;5070440;28;20119;-67
2023/09/02 12:25:21;;;;;;;0.75;0.75;;;21.20;99.90;;;;;;5039764;28;20037;-68
2023/09/02 12:27:47;;;;;;;0.38;0.38;;;21.40;99.90;;;;;;5038084;28;20052;-68
2023/09/02 12:30:24;;;;;;;0.30;0.30;;;21.50;99.90;;;;;;5032693;28;20776;-67
2023/09/02 12:32:49;;;;;;;0.70;0.70;;;21.40;99.90;;;;;;5037793;28;20207;-68
2023/09/02 12:35:15;;;;;;;0.80;0.10;;;21.40;99.90;;;;;;5071057;28;20048;-69
2023/09/02 12:37:41;;;;;;;0.20;0.20;;;21.40;99.90;;;;;;5034722;28;20037;-69
2023/09/02 12:40:13;;;;;;;0.88;0.77;;;21.40;99.90;;;;;;5042806;28;20076;-69
2023/09/02 12:42:40;;;;;;;0.90;0.90;;;21.40;99.90;;;;;;5019984;28;20036;-68
2023/09/02 12:45:08;;;;;;;0.43;0.40;;;21.60;99.90;;;;;;5032094;28;20119;-68
2023/09/02 12:47:36;;;;;;;0.15;0.15;;;21.70;99.90;;;;;;5041012;28;20075;-69
2023/09/02 12:50:02;;;;;;;0.20;0.20;;;21.70;99.90;;;;;;5039564;28;20042;-69
2023/09/02 12:52:29;;;;;;;1.35;0.40;;;21.60;99.90;;;;;;5045634;28;20515;-68
2023/09/02 12:54:56;;;;;;;0.10;0.10;;;21.60;99.90;;;;;;5048435;28;20113;-69
2023/09/02 12:57:29;;;;;;;2.13;1.02;;;21.60;99.90;;;;;;5042815;28;20041;-69
2023/09/02 12:59:55;;;;;;;0.47;0.47;;;21.50;99.90;;;;;;5044021;28;20037;-69
2023/09/02 13:02:24;;;;;;;0.35;0.35;;;21.40;99.90;;;;;;5037207;28;20075;-69
2023/09/02 13:04:49;;;;;;;0.52;0.52;;;21.30;99.90;;;;;;5045766;28;20045;-68
2023/09/02 13:07:21;;;;;;;2.47;0.35;;;21.20;99.90;;;;;;5061792;28;20451;-69
2023/09/02 13:09:48;;;;;;;0.43;0.35;;;21.20;99.90;;;;;;5037938;28;20552;-69
2023/09/02 13:12:14;;;;;;;0.43;0.10;;;21.30;99.90;;;;;;5039345;28;20499;-69
2023/09/02 13:14:41;;;;;;;0.93;0.40;;;21.40;99.90;;;;;;5033361;28;20049;-68
2023/09/02 13:17:07;;;;;;;0.30;0.30;;;21.40;99.90;;;;;;5065952;28;20090;-68
2023/09/02 13:19:35;;;;;;;4.10;1.10;;;21.50;99.90;;;;;;5036072;28;20037;-69
2023/09/02 13:22:01;;;;;;;0.25;0.25;;;21.50;99.90;;;;;;5045612;28;20041;-68
2023/09/02 13:24:30;;;;;;;0.35;0.35;;;21.60;99.90;;;;;;5042082;28;20112;-67
2023/09/02 13:26:58;;;;;;;0.93;0.50;;;21.60;99.90;;;;;;5040809;28;20218;-69